createdAt,value
2023-10-21T00:00:25.683Z,17.75
2023-10-21T00:02:53.574Z,13.68
2023-10-21T00:05:21.563Z,13.33
2023-10-21T00:07:49.189Z,14.70
2023-10-21T00:10:17.174Z,15.82
2023-10-21T00:12:45.877Z,17.20
2023-10-21T00:15:13.621Z,17.50
2023-10-21T00:17:42.477Z,11.13
2023-10-21T00:20:10.717Z,10.88
2023-10-21T00:22:38.283Z,15.05
2023-10-21T00:25:06.563Z,18.27
2023-10-21T00:27:34.062Z,15.70
2023-10-21T00:30:01.603Z,10.60
2023-10-21T00:32:29.738Z,20.20
2023-10-21T00:34:57.320Z,17.75
2023-10-21T00:37:24.875Z,18.17
2023-10-21T00:39:52.688Z,8.65
2023-10-21T00:42:20.369Z,9.17
2023-10-21T00:44:48.618Z,15.00
2023-10-21T00:47:17.414Z,12.90
2023-10-21T00:49:44.983Z,11.20
2023-10-21T00:52:14.917Z,12.13
2023-10-21T00:54:43.140Z,18.83
2023-10-21T00:57:11.070Z,20.17
2023-10-21T00:59:41.412Z,12.18
2023-10-21T01:02:14.148Z,8.43
2023-10-21T01:04:42.877Z,12.25
2023-10-21T01:07:18.490Z,14.67
2023-10-21T01:09:46.080Z,16.42
2023-10-21T01:12:13.958Z,17.10
2023-10-21T01:14:41.581Z,12.75
2023-10-21T01:17:09.628Z,14.50
2023-10-21T01:19:37.599Z,15.13
2023-10-21T01:22:05.152Z,13.95
2023-10-21T01:24:32.675Z,11.52
2023-10-21T01:27:00.573Z,11.98
2023-10-21T01:29:28.153Z,14.82
2023-10-21T01:31:56.479Z,12.23
2023-10-21T01:34:24.801Z,11.32
2023-10-21T01:36:54.024Z,10.52
2023-10-21T01:39:21.617Z,14.45
2023-10-21T01:41:49.562Z,14.30
2023-10-21T01:44:17.220Z,18.23
2023-10-21T01:46:44.741Z,15.52
2023-10-21T01:49:12.628Z,18.10
2023-10-21T01:51:40.172Z,12.07
2023-10-21T01:54:07.792Z,14.05
2023-10-21T01:56:35.659Z,11.30
2023-10-21T01:59:03.190Z,14.23
2023-10-21T02:02:38.918Z,12.95
2023-10-21T02:05:07.557Z,12.25
2023-10-21T02:07:38.603Z,13.18
2023-10-21T02:10:06.681Z,11.67
2023-10-21T02:12:34.702Z,10.98
2023-10-21T02:15:02.694Z,12.95
2023-10-21T02:17:30.782Z,13.57
2023-10-21T02:20:00.059Z,14.73
2023-10-21T02:22:28.257Z,12.47
2023-10-21T02:24:55.942Z,15.25
2023-10-21T02:27:23.668Z,15.68
2023-10-21T02:29:51.658Z,15.85
2023-10-21T02:32:19.646Z,10.77
2023-10-21T02:34:47.321Z,11.43
2023-10-21T02:37:14.876Z,17.92
2023-10-21T02:39:42.688Z,16.25
2023-10-21T02:42:10.242Z,11.20
2023-10-21T02:44:37.845Z,10.15
2023-10-21T02:47:05.974Z,17.50
2023-10-21T02:49:34.023Z,13.23
2023-10-21T02:52:02.389Z,11.05
2023-10-21T02:54:32.068Z,12.27
2023-10-21T02:56:59.993Z,15.05
2023-10-21T02:59:28.157Z,14.40
2023-10-21T03:01:57.064Z,16.12
2023-10-21T03:04:24.604Z,16.40
2023-10-21T03:06:53.151Z,16.15
2023-10-21T03:09:23.566Z,11.48
2023-10-21T03:11:51.236Z,15.70
2023-10-21T03:14:18.797Z,8.20
2023-10-21T03:16:49.734Z,13.55
2023-10-21T03:19:17.308Z,17.08
2023-10-21T03:21:46.324Z,18.98
2023-10-21T03:24:14.220Z,24.53
2023-10-21T03:26:42.217Z,28.60
2023-10-21T03:29:12.871Z,23.65
2023-10-21T03:31:42.271Z,16.83
2023-10-21T03:34:09.940Z,21.80
2023-10-21T03:36:37.495Z,11.23
2023-10-21T03:39:06.962Z,14.60
2023-10-21T03:41:34.584Z,14.10
2023-10-21T03:44:03.014Z,14.05
2023-10-21T03:46:34.058Z,13.00
2023-10-21T03:49:01.640Z,9.77
2023-10-21T03:51:30.262Z,8.38
2023-10-21T03:53:58.070Z,11.73
2023-10-21T03:56:25.708Z,7.50
2023-10-21T03:58:53.211Z,9.95
2023-10-21T04:01:23.932Z,7.30
2023-10-21T04:03:52.260Z,4.25
2023-10-21T04:06:20.308Z,7.00
2023-10-21T04:08:48.079Z,6.57
2023-10-21T04:11:16.104Z,7.35
2023-10-21T04:13:43.681Z,6.10
2023-10-21T04:16:11.308Z,7.00
2023-10-21T04:18:39.211Z,6.12
2023-10-21T04:21:07.066Z,7.18
2023-10-21T04:23:34.708Z,4.65
2023-10-21T04:26:04.880Z,5.80
2023-10-21T04:28:32.629Z,4.30
2023-10-21T04:31:00.196Z,5.43
2023-10-21T04:33:28.101Z,4.80
2023-10-21T04:35:55.782Z,7.10
2023-10-21T04:38:23.404Z,5.23
2023-10-21T04:40:51.280Z,8.25
2023-10-21T04:43:18.829Z,3.40
2023-10-21T04:45:46.443Z,5.40
2023-10-21T04:48:14.422Z,7.62
2023-10-21T04:50:42.058Z,5.63
2023-10-21T04:53:10.318Z,8.40
2023-10-21T04:55:38.271Z,7.32
2023-10-21T04:58:05.859Z,8.85
2023-10-21T05:00:34.286Z,7.05
2023-10-21T05:03:02.337Z,5.17
2023-10-21T05:05:30.010Z,12.13
2023-10-21T05:07:57.560Z,7.72
2023-10-21T05:10:25.438Z,8.20
2023-10-21T05:12:53.002Z,6.22
2023-10-21T05:15:20.543Z,7.83
2023-10-21T05:17:48.549Z,6.07
2023-10-21T05:20:16.444Z,5.40
2023-10-21T05:22:44.064Z,5.80
2023-10-21T05:25:11.996Z,8.18
2023-10-21T05:27:39.514Z,5.73
2023-10-21T05:30:07.716Z,8.43
2023-10-21T05:32:35.712Z,11.30
2023-10-21T05:35:03.398Z,7.32
2023-10-21T05:37:31.075Z,7.93
2023-10-21T05:39:58.965Z,5.27
2023-10-21T05:42:26.678Z,7.95
2023-10-21T05:44:54.558Z,3.53
2023-10-21T05:47:22.647Z,7.53
2023-10-21T05:49:50.367Z,8.77
2023-10-21T05:52:17.899Z,9.20
2023-10-21T05:54:45.857Z,5.43
2023-10-21T05:57:14.348Z,5.57
2023-10-21T05:59:42.014Z,5.47
2023-10-21T06:02:10.540Z,3.30
2023-10-21T06:04:39.208Z,3.27
2023-10-21T06:07:07.892Z,4.20
2023-10-21T06:09:35.517Z,6.53
2023-10-21T06:12:03.553Z,6.68
2023-10-21T06:14:31.223Z,7.35
2023-10-21T06:16:59.397Z,8.80
2023-10-21T06:19:27.309Z,9.07
2023-10-21T06:21:57.849Z,7.60
2023-10-21T06:24:26.141Z,3.85
2023-10-21T06:26:54.144Z,6.32
2023-10-21T06:29:24.742Z,8.27
2023-10-21T06:31:53.400Z,8.48
2023-10-21T06:34:21.344Z,6.68
2023-10-21T06:36:48.918Z,10.48
2023-10-21T06:39:16.506Z,6.35
2023-10-21T06:41:44.811Z,10.57
2023-10-21T06:44:12.348Z,7.80
2023-10-21T06:46:40.278Z,7.35
2023-10-21T06:49:08.200Z,9.45
2023-10-21T06:51:37.140Z,10.73
2023-10-21T06:54:07.002Z,10.07
2023-10-21T06:56:36.327Z,10.00
2023-10-21T06:59:04.926Z,6.87
2023-10-21T07:01:33.878Z,13.80
2023-10-21T07:04:01.876Z,9.00
2023-10-21T07:06:29.446Z,7.27
2023-10-21T07:08:57.147Z,9.43
2023-10-21T07:11:25.402Z,9.52
2023-10-21T07:13:53.034Z,5.32
2023-10-21T07:16:20.943Z,8.07
2023-10-21T07:18:49.420Z,6.40
2023-10-21T07:21:17.682Z,5.47
2023-10-21T07:23:45.313Z,5.28
2023-10-21T07:26:13.198Z,8.05
2023-10-21T07:28:41.689Z,8.15
2023-10-21T07:31:10.158Z,4.77
2023-10-21T07:33:38.147Z,4.87
2023-10-21T07:36:06.254Z,6.07
2023-10-21T07:38:33.879Z,7.45
2023-10-21T07:41:01.777Z,6.20
2023-10-21T07:43:29.390Z,5.70
2023-10-21T07:45:57.049Z,9.23
2023-10-21T07:48:26.609Z,5.85
2023-10-21T07:50:55.089Z,6.90
2023-10-21T07:53:22.999Z,6.22
2023-10-21T07:55:51.466Z,11.03
2023-10-21T07:58:19.048Z,7.22
2023-10-21T08:00:46.708Z,5.12
2023-10-21T08:03:14.834Z,3.87
2023-10-21T08:05:43.704Z,5.47
2023-10-21T08:08:11.958Z,7.70
2023-10-21T08:10:39.871Z,7.62
2023-10-21T08:13:07.470Z,6.20
2023-10-21T08:15:35.067Z,5.12
2023-10-21T08:18:04.321Z,5.93
2023-10-21T08:20:32.045Z,6.43
2023-10-21T08:22:59.675Z,7.57
2023-10-21T08:25:27.581Z,4.75
2023-10-21T08:27:55.120Z,3.42
2023-10-21T08:30:22.752Z,3.45
2023-10-21T08:32:52.624Z,8.40
2023-10-21T08:35:20.320Z,4.37
2023-10-21T08:37:47.926Z,8.15
2023-10-21T08:40:16.297Z,4.90
2023-10-21T08:45:18.018Z,5.93
2023-10-21T08:47:46.366Z,7.40
2023-10-21T08:50:14.516Z,5.28
2023-10-21T08:52:43.662Z,5.70
2023-10-21T08:55:12.242Z,6.10
2023-10-21T08:57:40.505Z,4.57
2023-10-21T09:00:11.671Z,5.25
2023-10-21T09:02:39.738Z,7.80
2023-10-21T09:05:13.713Z,3.37
2023-10-21T09:07:51.024Z,4.07
2023-10-21T09:10:20.117Z,4.87
2023-10-21T09:12:48.498Z,3.67
2023-10-21T09:15:16.236Z,7.85
2023-10-21T09:17:48.426Z,4.00
2023-10-21T09:20:18.245Z,6.87
2023-10-21T09:22:53.139Z,5.17
2023-10-21T09:25:23.564Z,4.80
2023-10-21T09:27:56.878Z,3.72
2023-10-21T09:30:27.356Z,3.55
2023-10-21T09:33:12.087Z,3.30
2023-10-21T09:35:40.080Z,3.83
2023-10-21T09:38:18.929Z,2.35
2023-10-21T09:40:47.155Z,4.75
2023-10-21T09:43:14.966Z,6.53
2023-10-21T09:45:46.388Z,8.07
2023-10-21T09:48:14.852Z,9.43
2023-10-21T09:51:07.513Z,5.45
2023-10-21T09:53:40.555Z,7.68
2023-10-21T09:56:12.653Z,8.38
2023-10-21T09:58:42.052Z,6.20
2023-10-21T10:01:11.952Z,4.90
2023-10-21T10:03:41.716Z,4.97
2023-10-21T10:06:11.175Z,4.62
2023-10-21T10:08:39.259Z,4.95
2023-10-21T10:11:16.595Z,7.70
2023-10-21T10:13:50.331Z,4.60
2023-10-21T10:16:26.060Z,5.30
2023-10-21T10:18:57.230Z,5.03
2023-10-21T10:21:25.562Z,9.30
2023-10-21T10:23:59.791Z,8.57
2023-10-21T10:26:38.228Z,9.47
2023-10-21T10:29:27.052Z,7.32
2023-10-21T10:32:15.558Z,5.53
2023-10-21T10:34:51.954Z,6.53
2023-10-21T10:37:51.327Z,3.45
2023-10-21T10:40:20.025Z,6.60
2023-10-21T10:42:48.009Z,6.55
2023-10-21T10:45:16.032Z,5.37
2023-10-21T10:47:45.159Z,7.50
2023-10-21T10:50:20.605Z,3.15
2023-10-21T10:52:48.382Z,6.77
2023-10-21T10:55:16.431Z,6.15
2023-10-21T10:57:45.170Z,6.72
2023-10-21T11:00:21.610Z,8.25
2023-10-21T11:02:50.709Z,9.10
2023-10-21T11:05:21.471Z,4.83
2023-10-21T11:07:53.444Z,9.73
2023-10-21T11:10:23.281Z,6.95
2023-10-21T11:12:51.552Z,10.30
2023-10-21T11:15:20.598Z,9.10
2023-10-21T11:17:48.567Z,10.57
2023-10-21T11:20:16.690Z,5.80
2023-10-21T11:22:44.282Z,7.90
2023-10-21T11:25:12.312Z,8.25
2023-10-21T11:27:41.624Z,6.60
2023-10-21T11:30:10.417Z,5.70
2023-10-21T11:32:41.267Z,6.62
2023-10-21T11:35:12.453Z,8.82
2023-10-21T11:37:40.167Z,8.20
2023-10-21T11:40:12.118Z,4.82
2023-10-21T11:42:40.134Z,8.30
2023-10-21T11:45:10.606Z,7.50
2023-10-21T11:47:38.842Z,5.28
2023-10-21T11:50:10.384Z,12.37
2023-10-21T11:52:39.769Z,9.07
2023-10-21T11:55:10.957Z,9.13
2023-10-21T11:57:50.738Z,4.93
2023-10-21T12:00:37.291Z,8.27
2023-10-21T12:03:24.012Z,6.32
2023-10-21T12:05:51.741Z,8.05
2023-10-21T12:08:38.565Z,3.67
2023-10-21T12:11:17.281Z,7.15
2023-10-21T12:14:05.072Z,5.57
2023-10-21T12:16:32.672Z,5.60
2023-10-21T12:19:32.759Z,5.03
2023-10-21T12:22:15.689Z,7.07
2023-10-21T12:25:02.353Z,16.05
2023-10-21T12:27:42.063Z,24.23
2023-10-21T12:30:29.145Z,10.82
2023-10-21T12:33:15.367Z,9.05
2023-10-21T12:35:49.356Z,4.87
2023-10-21T12:38:24.356Z,4.53
2023-10-21T12:41:10.649Z,13.15
2023-10-21T12:43:38.578Z,8.65
2023-10-21T12:46:23.769Z,8.13
2023-10-21T12:48:59.157Z,5.73
2023-10-21T12:51:31.994Z,9.02
2023-10-21T12:54:13.481Z,4.95
2023-10-21T12:56:42.532Z,5.30
2023-10-21T12:59:10.247Z,5.25
2023-10-21T13:01:39.877Z,4.47
2023-10-21T13:04:08.278Z,9.35
2023-10-21T13:06:36.506Z,7.55
2023-10-21T13:09:22.219Z,6.75
2023-10-21T13:11:52.101Z,5.70
2023-10-21T13:14:20.875Z,7.40
2023-10-21T13:16:53.458Z,4.97
2023-10-21T13:19:23.784Z,4.47
2023-10-21T13:21:56.444Z,3.65
2023-10-21T13:24:24.403Z,4.95
2023-10-21T13:26:52.852Z,6.57
2023-10-21T13:29:20.704Z,6.97
2023-10-21T13:31:48.639Z,5.25
2023-10-21T13:34:16.221Z,4.30
2023-10-21T13:36:43.758Z,7.32
2023-10-21T13:39:19.542Z,4.97
2023-10-21T13:41:48.086Z,5.53
2023-10-21T13:44:16.424Z,5.80
2023-10-21T13:46:44.302Z,4.95
2023-10-21T13:49:17.982Z,7.65
2023-10-21T13:51:47.396Z,5.43
2023-10-21T13:54:16.017Z,4.10
2023-10-21T13:56:44.055Z,5.97
2023-10-21T13:59:14.646Z,6.62
2023-10-21T14:01:43.654Z,3.95
2023-10-21T14:04:13.723Z,5.67
2023-10-21T14:06:42.146Z,5.43
2023-10-21T14:09:23.822Z,5.75
2023-10-21T14:11:52.786Z,5.68
2023-10-21T14:14:20.462Z,8.25
2023-10-21T14:16:48.193Z,6.47
2023-10-21T14:19:16.089Z,7.62
2023-10-21T14:21:44.731Z,7.47
2023-10-21T14:24:12.491Z,5.40
2023-10-21T14:26:40.365Z,8.57
2023-10-21T14:29:08.690Z,8.10
2023-10-21T14:31:37.139Z,4.72
2023-10-21T14:34:08.098Z,4.18
2023-10-21T14:36:35.688Z,5.90
2023-10-21T14:39:04.597Z,6.30
2023-10-21T14:41:34.456Z,4.07
2023-10-21T14:44:01.992Z,6.25
2023-10-21T14:46:29.552Z,11.55
2023-10-21T14:48:57.510Z,6.22
2023-10-21T14:51:25.209Z,5.82
2023-10-21T14:53:52.781Z,5.60
2023-10-21T14:56:21.226Z,7.47
2023-10-21T14:58:48.754Z,5.10
2023-10-21T15:01:16.479Z,4.15
2023-10-21T15:03:46.300Z,9.50
2023-10-21T15:06:14.736Z,11.13
2023-10-21T15:08:43.619Z,7.18
2023-10-21T15:11:15.934Z,5.78
2023-10-21T15:13:43.793Z,8.18
2023-10-21T15:16:11.889Z,5.70
2023-10-21T15:18:39.560Z,13.43
2023-10-21T15:21:08.904Z,9.23
2023-10-21T15:23:38.118Z,10.43
2023-10-21T15:26:16.426Z,8.55
2023-10-21T15:28:44.646Z,8.45
2023-10-21T15:31:12.724Z,7.70
2023-10-21T15:33:41.348Z,8.85
2023-10-21T15:36:09.719Z,12.57
2023-10-21T15:38:37.427Z,7.85
2023-10-21T15:41:05.010Z,8.27
2023-10-21T15:43:32.911Z,6.57
2023-10-21T15:46:01.356Z,7.37
2023-10-21T15:48:34.148Z,6.30
2023-10-21T15:51:10.596Z,5.85
2023-10-21T15:53:39.029Z,5.87
2023-10-21T15:56:07.176Z,4.20
2023-10-21T15:58:34.804Z,7.55
2023-10-21T16:01:02.316Z,8.00
2023-10-21T16:03:30.309Z,5.47
2023-10-21T16:05:58.042Z,8.43
2023-10-21T16:08:25.682Z,6.50
2023-10-21T16:11:01.898Z,6.32
2023-10-21T16:13:29.664Z,9.73
2023-10-21T16:15:59.180Z,11.70
2023-10-21T16:18:27.465Z,9.57
2023-10-21T16:20:55.727Z,6.57
2023-10-21T16:23:23.521Z,7.47
2023-10-21T16:25:51.081Z,9.05
2023-10-21T16:28:18.607Z,7.37
2023-10-21T16:30:46.575Z,10.02
2023-10-21T16:33:14.215Z,11.40
2023-10-21T16:35:45.552Z,10.10
2023-10-21T16:38:13.542Z,6.18
2023-10-21T16:40:41.485Z,7.28
2023-10-21T16:43:09.145Z,11.05
2023-10-21T16:45:38.828Z,9.77
2023-10-21T16:48:06.816Z,10.50
2023-10-21T16:50:34.423Z,6.78
2023-10-21T16:53:05.221Z,6.70
2023-10-21T16:55:32.802Z,8.40
2023-10-21T16:58:00.345Z,7.10
2023-10-21T17:00:28.439Z,9.18
2023-10-21T17:02:56.725Z,7.87
2023-10-21T17:05:24.704Z,13.15
2023-10-21T17:07:52.635Z,9.05
2023-10-21T17:10:21.917Z,7.43
2023-10-21T17:12:49.847Z,5.70
2023-10-21T17:15:17.944Z,6.80
2023-10-21T17:17:45.938Z,6.43
2023-10-21T17:20:14.737Z,6.60
2023-10-21T17:22:45.148Z,5.63
2023-10-21T17:25:13.428Z,9.68
2023-10-21T17:27:41.082Z,7.20
2023-10-21T17:30:09.377Z,6.65
2023-10-21T17:32:37.119Z,9.02
2023-10-21T17:35:05.502Z,7.53
2023-10-21T17:37:33.416Z,9.38
2023-10-21T17:40:01.723Z,6.47
2023-10-21T17:42:29.435Z,9.73
2023-10-21T17:44:57.450Z,13.95
2023-10-21T17:47:26.404Z,8.93
2023-10-21T17:49:53.950Z,7.68
2023-10-21T17:52:21.790Z,8.18
2023-10-21T17:54:49.399Z,6.05
2023-10-21T17:57:17.066Z,10.02
2023-10-21T17:59:45.017Z,7.43
2023-10-21T18:02:12.563Z,6.43
2023-10-21T18:04:40.548Z,8.68
2023-10-21T18:07:08.258Z,8.05
2023-10-21T18:09:36.100Z,8.75
2023-10-21T18:12:05.020Z,8.07
2023-10-21T18:14:32.647Z,8.18
2023-10-21T18:17:00.225Z,14.80
2023-10-21T18:19:28.852Z,7.87
2023-10-21T18:21:59.825Z,9.60
2023-10-21T18:24:29.258Z,8.47
2023-10-21T18:26:56.820Z,9.00
2023-10-21T18:29:24.401Z,10.52
2023-10-21T18:31:52.306Z,9.38
2023-10-21T18:34:19.841Z,11.73
2023-10-21T18:36:47.419Z,7.07
2023-10-21T18:39:19.194Z,8.65
2023-10-21T18:41:47.097Z,6.10
2023-10-21T18:44:17.205Z,7.20
2023-10-21T18:46:44.954Z,6.72
2023-10-21T18:49:12.685Z,12.67
2023-10-21T18:51:40.666Z,11.12
2023-10-21T18:54:08.473Z,6.95
2023-10-21T18:56:36.083Z,8.85
2023-10-21T18:59:06.556Z,8.10
2023-10-21T19:01:37.587Z,8.20
2023-10-21T19:04:08.208Z,10.35
2023-10-21T19:06:37.574Z,6.35
2023-10-21T19:09:08.997Z,8.30
2023-10-21T19:11:36.942Z,11.25
2023-10-21T19:14:05.362Z,7.93
2023-10-21T19:16:34.341Z,6.78
2023-10-21T19:19:02.573Z,8.40
2023-10-21T19:21:30.265Z,10.93
2023-10-21T19:23:59.739Z,9.82
2023-10-21T19:26:27.958Z,9.37
2023-10-21T19:28:55.733Z,6.85
2023-10-21T19:31:23.579Z,8.13
2023-10-21T19:33:52.343Z,13.00
2023-10-21T19:36:20.122Z,7.95
2023-10-21T19:38:49.557Z,12.53
2023-10-21T19:41:18.134Z,7.60
2023-10-21T19:43:47.614Z,10.80
2023-10-21T19:46:15.302Z,9.18
2023-10-21T19:48:43.163Z,13.60
2023-10-21T19:51:11.537Z,9.57
2023-10-21T19:53:39.101Z,13.23
2023-10-21T19:56:07.628Z,13.57
2023-10-21T19:58:36.782Z,12.05
2023-10-21T20:01:10.295Z,10.38
2023-10-21T20:03:40.766Z,11.33
2023-10-21T20:06:08.467Z,8.20
2023-10-21T20:08:36.053Z,11.30
2023-10-21T20:11:12.029Z,14.60
2023-10-21T20:13:40.929Z,11.98
2023-10-21T20:16:10.571Z,9.33
2023-10-21T20:18:44.517Z,10.57
2023-10-21T20:21:13.320Z,10.85
2023-10-21T20:23:41.049Z,10.60
2023-10-21T20:26:11.082Z,11.12
2023-10-21T20:28:42.727Z,12.93
2023-10-21T20:31:11.456Z,13.70
2023-10-21T20:33:39.878Z,9.40
2023-10-21T20:36:11.280Z,9.52
2023-10-21T20:38:40.182Z,12.57
2023-10-21T20:41:12.775Z,7.20
2023-10-21T20:43:42.277Z,8.95
2023-10-21T20:46:10.807Z,10.70
2023-10-21T20:48:41.988Z,9.10
2023-10-21T20:51:17.323Z,15.45
2023-10-21T20:53:45.026Z,10.77
2023-10-21T20:56:21.174Z,10.75
2023-10-21T20:58:49.082Z,9.75
2023-10-21T21:01:30.372Z,11.23
2023-10-21T21:04:02.425Z,11.48
2023-10-21T21:06:30.914Z,11.30
2023-10-21T21:08:58.607Z,11.70
2023-10-21T21:11:26.203Z,12.27
2023-10-21T21:13:54.193Z,9.18
2023-10-21T21:16:21.860Z,11.85
2023-10-21T21:18:49.470Z,9.77
2023-10-21T21:21:17.348Z,7.97
2023-10-21T21:23:45.435Z,13.25
2023-10-21T21:26:13.071Z,9.95
2023-10-21T21:28:41.013Z,10.13
2023-10-21T21:31:09.539Z,8.83
2023-10-21T21:33:37.194Z,8.70
2023-10-21T21:36:05.650Z,12.90
2023-10-21T21:38:33.554Z,11.80
2023-10-21T21:41:13.535Z,7.10
2023-10-21T21:43:42.029Z,14.40
2023-10-21T21:46:23.335Z,8.25
2023-10-21T21:48:51.361Z,9.80
2023-10-21T21:51:19.107Z,8.48
2023-10-21T21:53:46.790Z,9.25
2023-10-21T21:56:14.613Z,8.10
2023-10-21T21:58:42.244Z,7.80
2023-10-21T22:01:12.364Z,9.13
2023-10-21T22:03:40.576Z,10.05
2023-10-21T22:06:08.227Z,10.18
2023-10-21T22:08:35.891Z,7.07
2023-10-21T22:11:03.930Z,6.28
2023-10-21T22:13:31.594Z,13.25
2023-10-21T22:16:01.878Z,5.20
2023-10-21T22:18:30.330Z,6.45
2023-10-21T22:20:58.220Z,9.43
2023-10-21T22:23:29.247Z,8.77
2023-10-21T22:25:57.353Z,11.77
2023-10-21T22:28:25.746Z,10.63
2023-10-21T22:31:01.365Z,13.82
2023-10-21T22:33:29.449Z,6.37
2023-10-21T22:35:57.085Z,7.18
2023-10-21T22:38:24.652Z,8.52
2023-10-21T22:40:55.297Z,7.43
2023-10-21T22:43:24.018Z,9.57
2023-10-21T22:45:52.036Z,7.90
2023-10-21T22:48:20.091Z,13.35
2023-10-21T22:50:47.806Z,14.02
2023-10-21T22:53:15.699Z,7.80
2023-10-21T22:55:43.198Z,9.90
2023-10-21T22:58:10.785Z,8.53
2023-10-21T23:00:38.612Z,9.32
2023-10-21T23:03:06.337Z,9.60
2023-10-21T23:05:37.477Z,11.00
2023-10-21T23:08:24.878Z,7.90
2023-10-21T23:10:55.835Z,13.70
2023-10-21T23:13:23.685Z,6.97
2023-10-21T23:15:51.996Z,6.45
2023-10-21T23:18:19.847Z,9.02
2023-10-21T23:20:47.865Z,7.32
2023-10-21T23:23:19.182Z,8.80
2023-10-21T23:25:47.840Z,8.27
2023-10-21T23:28:16.789Z,9.32
2023-10-21T23:30:44.685Z,9.25
2023-10-21T23:33:12.356Z,9.20
2023-10-21T23:35:40.578Z,10.60
2023-10-21T23:38:09.840Z,11.80
2023-10-21T23:40:43.936Z,14.45
2023-10-21T23:43:13.167Z,15.50
2023-10-21T23:45:40.959Z,12.15
2023-10-21T23:48:09.110Z,10.43
2023-10-21T23:50:37.182Z,12.23
2023-10-21T23:53:04.765Z,10.63
2023-10-21T23:55:32.360Z,10.95
2023-10-21T23:58:00.296Z,8.20
